sensor_id;sensor_type;location;lat;lon;timestamp;temperature;humidity
56162;DHT22;42045;52.986;6.014;2022-09-09T00:00:50;13.60;99.90
56162;DHT22;42045;52.986;6.014;2022-09-09T00:06:30;13.60;99.90
56162;DHT22;42045;52.986;6.014;2022-09-09T00:09:12;13.60;99.90
56162;DHT22;42045;52.986;6.014;2022-09-09T00:11:54;13.60;99.90
56162;DHT22;42045;52.986;6.014;2022-09-09T00:14:37;13.50;99.90
56162;DHT22;42045;52.986;6.014;2022-09-09T00:20:12;13.50;99.90
56162;DHT22;42045;52.986;6.014;2022-09-09T00:22:42;13.50;99.90
56162;DHT22;42045;52.986;6.014;2022-09-09T00:25:15;13.40;99.90
56162;DHT22;42045;52.986;6.014;2022-09-09T00:27:48;13.40;99.90
56162;DHT22;42045;52.986;6.014;2022-09-09T00:32:43;13.40;99.90
56162;DHT22;42045;52.986;6.014;2022-09-09T00:35:25;13.40;99.90
56162;DHT22;42045;52.986;6.014;2022-09-09T00:37:55;13.40;99.90
56162;DHT22;42045;52.986;6.014;2022-09-09T00:40:32;13.40;99.90
56162;DHT22;42045;52.986;6.014;2022-09-09T00:43:28;13.30;99.90
56162;DHT22;42045;52.986;6.014;2022-09-09T00:46:14;13.30;99.90
56162;DHT22;42045;52.986;6.014;2022-09-09T00:54:12;13.40;99.90
56162;DHT22;42045;52.986;6.014;2022-09-09T00:56:47;13.30;99.90
56162;DHT22;42045;52.986;6.014;2022-09-09T01:08:01;13.40;99.90
56162;DHT22;42045;52.986;6.014;2022-09-09T01:10:53;13.30;99.90
56162;DHT22;42045;52.986;6.014;2022-09-09T01:13:32;13.40;99.90
56162;DHT22;42045;52.986;6.014;2022-09-09T01:16:10;13.40;99.90
56162;DHT22;42045;52.986;6.014;2022-09-09T01:18:44;13.40;99.90
56162;DHT22;42045;52.986;6.014;2022-09-09T01:28:55;13.50;99.90
56162;DHT22;42045;52.986;6.014;2022-09-09T01:31:28;13.40;99.90
56162;DHT22;42045;52.986;6.014;2022-09-09T01:33:55;13.50;99.90
56162;DHT22;42045;52.986;6.014;2022-09-09T01:39:10;13.50;99.90
56162;DHT22;42045;52.986;6.014;2022-09-09T01:41:36;13.60;99.90
56162;DHT22;42045;52.986;6.014;2022-09-09T01:44:03;13.60;99.90
56162;DHT22;42045;52.986;6.014;2022-09-09T01:46:29;13.60;99.90
56162;DHT22;42045;52.986;6.014;2022-09-09T01:48:56;13.70;99.90
56162;DHT22;42045;52.986;6.014;2022-09-09T01:51:23;13.80;99.90
56162;DHT22;42045;52.986;6.014;2022-09-09T01:53:50;13.70;99.90
56162;DHT22;42045;52.986;6.014;2022-09-09T01:56:28;13.60;99.90
56162;DHT22;42045;52.986;6.014;2022-09-09T02:04:49;13.70;99.90
56162;DHT22;42045;52.986;6.014;2022-09-09T02:07:42;13.70;99.90
56162;DHT22;42045;52.986;6.014;2022-09-09T02:10:12;13.60;99.90
56162;DHT22;42045;52.986;6.014;2022-09-09T02:12:47;13.60;99.90
56162;DHT22;42045;52.986;6.014;2022-09-09T02:15:30;13.60;99.90
56162;DHT22;42045;52.986;6.014;2022-09-09T02:18:01;13.60;99.90
56162;DHT22;42045;52.986;6.014;2022-09-09T02:20:32;13.60;99.90
56162;DHT22;42045;52.986;6.014;2022-09-09T02:22:59;13.70;99.90
56162;DHT22;42045;52.986;6.014;2022-09-09T02:25:28;13.60;99.90
56162;DHT22;42045;52.986;6.014;2022-09-09T02:27:56;13.60;99.90
56162;DHT22;42045;52.986;6.014;2022-09-09T02:30:24;13.70;99.90
56162;DHT22;42045;52.986;6.014;2022-09-09T02:32:54;13.70;99.90
56162;DHT22;42045;52.986;6.014;2022-09-09T02:35:25;13.70;99.90
56162;DHT22;42045;52.986;6.014;2022-09-09T02:37:55;13.80;99.90
56162;DHT22;42045;52.986;6.014;2022-09-09T02:40:22;13.70;99.90
56162;DHT22;42045;52.986;6.014;2022-09-09T02:42:49;13.80;99.90
56162;DHT22;42045;52.986;6.014;2022-09-09T02:45:19;13.80;99.90
56162;DHT22;42045;52.986;6.014;2022-09-09T02:50:27;13.70;99.90
56162;DHT22;42045;52.986;6.014;2022-09-09T02:53:02;13.60;99.90
56162;DHT22;42045;52.986;6.014;2022-09-09T02:58:14;13.80;99.90
56162;DHT22;42045;52.986;6.014;2022-09-09T03:00:44;13.80;99.90
56162;DHT22;42045;52.986;6.014;2022-09-09T03:03:11;13.70;99.90
56162;DHT22;42045;52.986;6.014;2022-09-09T03:05:37;13.70;99.90
56162;DHT22;42045;52.986;6.014;2022-09-09T03:08:04;13.80;99.90
56162;DHT22;42045;52.986;6.014;2022-09-09T03:10:32;13.90;99.90
56162;DHT22;42045;52.986;6.014;2022-09-09T03:12:59;13.90;99.90
56162;DHT22;42045;52.986;6.014;2022-09-09T03:15:25;14.00;99.90
56162;DHT22;42045;52.986;6.014;2022-09-09T03:17:54;13.90;99.90
56162;DHT22;42045;52.986;6.014;2022-09-09T03:20:21;14.00;99.90
56162;DHT22;42045;52.986;6.014;2022-09-09T03:22:47;13.90;99.90
56162;DHT22;42045;52.986;6.014;2022-09-09T03:25:13;14.00;99.90
56162;DHT22;42045;52.986;6.014;2022-09-09T03:27:39;13.90;99.90
56162;DHT22;42045;52.986;6.014;2022-09-09T03:30:06;13.90;99.90
56162;DHT22;42045;52.986;6.014;2022-09-09T03:32:32;13.90;99.90
56162;DHT22;42045;52.986;6.014;2022-09-09T03:34:57;13.90;99.90
56162;DHT22;42045;52.986;6.014;2022-09-09T03:37:24;13.90;99.90
56162;DHT22;42045;52.986;6.014;2022-09-09T03:39:50;14.00;99.90
56162;DHT22;42045;52.986;6.014;2022-09-09T03:42:16;14.00;99.90
56162;DHT22;42045;52.986;6.014;2022-09-09T03:44:50;13.90;99.90
56162;DHT22;42045;52.986;6.014;2022-09-09T03:47:20;13.90;99.90
56162;DHT22;42045;52.986;6.014;2022-09-09T03:49:47;13.90;99.90
56162;DHT22;42045;52.986;6.014;2022-09-09T03:52:14;13.90;99.90
56162;DHT22;42045;52.986;6.014;2022-09-09T03:54:41;13.70;99.90
56162;DHT22;42045;52.986;6.014;2022-09-09T03:57:09;13.80;99.90
56162;DHT22;42045;52.986;6.014;2022-09-09T03:59:36;13.70;99.90
56162;DHT22;42045;52.986;6.014;2022-09-09T04:02:04;13.90;99.90
56162;DHT22;42045;52.986;6.014;2022-09-09T04:04:30;13.90;99.90
56162;DHT22;42045;52.986;6.014;2022-09-09T04:07:01;13.70;99.90
56162;DHT22;42045;52.986;6.014;2022-09-09T04:09:27;13.70;99.90
56162;DHT22;42045;52.986;6.014;2022-09-09T04:11:54;13.80;99.90
56162;DHT22;42045;52.986;6.014;2022-09-09T04:14:21;13.70;99.90
56162;DHT22;42045;52.986;6.014;2022-09-09T04:16:47;13.80;99.90
56162;DHT22;42045;52.986;6.014;2022-09-09T04:19:13;13.80;99.90
56162;DHT22;42045;52.986;6.014;2022-09-09T04:21:40;13.90;99.90
56162;DHT22;42045;52.986;6.014;2022-09-09T04:24:08;13.80;99.90
56162;DHT22;42045;52.986;6.014;2022-09-09T04:26:35;13.80;99.90
56162;DHT22;42045;52.986;6.014;2022-09-09T04:29:03;13.80;99.90
56162;DHT22;42045;52.986;6.014;2022-09-09T04:31:29;13.90;99.90
56162;DHT22;42045;52.986;6.014;2022-09-09T04:33:55;13.90;99.90
56162;DHT22;42045;52.986;6.014;2022-09-09T04:36:21;13.80;99.90
56162;DHT22;42045;52.986;6.014;2022-09-09T04:38:47;13.80;99.90
56162;DHT22;42045;52.986;6.014;2022-09-09T04:41:14;14.00;99.90
56162;DHT22;42045;52.986;6.014;2022-09-09T04:43:42;14.00;99.90
56162;DHT22;42045;52.986;6.014;2022-09-09T04:46:08;13.90;99.90
56162;DHT22;42045;52.986;6.014;2022-09-09T04:48:34;14.00;99.90
56162;DHT22;42045;52.986;6.014;2022-09-09T04:51:03;13.90;99.90
56162;DHT22;42045;52.986;6.014;2022-09-09T04:53:31;13.90;99.90
56162;DHT22;42045;52.986;6.014;2022-09-09T04:58:33;14.00;99.90
56162;DHT22;42045;52.986;6.014;2022-09-09T05:01:10;13.90;99.90
56162;DHT22;42045;52.986;6.014;2022-09-09T05:03:37;13.90;99.90
56162;DHT22;42045;52.986;6.014;2022-09-09T05:06:08;13.90;99.90
56162;DHT22;42045;52.986;6.014;2022-09-09T05:08:36;13.90;99.90
56162;DHT22;42045;52.986;6.014;2022-09-09T05:11:16;13.90;99.90
56162;DHT22;42045;52.986;6.014;2022-09-09T05:13:42;13.90;99.90
56162;DHT22;42045;52.986;6.014;2022-09-09T05:16:08;13.90;99.90
56162;DHT22;42045;52.986;6.014;2022-09-09T05:18:43;13.90;99.90
56162;DHT22;42045;52.986;6.014;2022-09-09T05:21:10;13.90;99.90
56162;DHT22;42045;52.986;6.014;2022-09-09T05:23:37;13.90;99.90
56162;DHT22;42045;52.986;6.014;2022-09-09T05:26:04;13.80;99.90
56162;DHT22;42045;52.986;6.014;2022-09-09T05:28:31;13.90;99.90
56162;DHT22;42045;52.986;6.014;2022-09-09T05:31:05;13.80;99.90
56162;DHT22;42045;52.986;6.014;2022-09-09T05:33:35;14.00;99.90
56162;DHT22;42045;52.986;6.014;2022-09-09T05:36:12;14.10;99.90
56162;DHT22;42045;52.986;6.014;2022-09-09T05:38:39;14.00;99.90
56162;DHT22;42045;52.986;6.014;2022-09-09T05:41:08;14.00;99.90
56162;DHT22;42045;52.986;6.014;2022-09-09T05:43:35;14.10;99.90
56162;DHT22;42045;52.986;6.014;2022-09-09T05:46:06;14.20;99.90
56162;DHT22;42045;52.986;6.014;2022-09-09T05:48:38;14.20;99.90
56162;DHT22;42045;52.986;6.014;2022-09-09T05:51:06;14.20;99.90
56162;DHT22;42045;52.986;6.014;2022-09-09T05:53:32;14.20;99.90
56162;DHT22;42045;52.986;6.014;2022-09-09T05:56:01;14.10;99.90
56162;DHT22;42045;52.986;6.014;2022-09-09T05:58:32;14.20;99.90
56162;DHT22;42045;52.986;6.014;2022-09-09T06:01:13;14.20;99.90
56162;DHT22;42045;52.986;6.014;2022-09-09T06:03:41;14.30;99.90
56162;DHT22;42045;52.986;6.014;2022-09-09T06:06:13;14.30;99.90
56162;DHT22;42045;52.986;6.014;2022-09-09T06:08:41;14.30;99.90
56162;DHT22;42045;52.986;6.014;2022-09-09T06:13:40;14.50;99.90
56162;DHT22;42045;52.986;6.014;2022-09-09T06:16:11;14.40;99.90
56162;DHT22;42045;52.986;6.014;2022-09-09T06:18:39;14.40;99.90
56162;DHT22;42045;52.986;6.014;2022-09-09T06:21:09;14.30;99.90
56162;DHT22;42045;52.986;6.014;2022-09-09T06:23:39;14.40;99.90
56162;DHT22;42045;52.986;6.014;2022-09-09T06:26:14;14.30;99.90
56162;DHT22;42045;52.986;6.014;2022-09-09T06:28:41;14.40;99.90
56162;DHT22;42045;52.986;6.014;2022-09-09T06:31:11;14.30;99.90
56162;DHT22;42045;52.986;6.014;2022-09-09T06:33:39;14.40;99.90
56162;DHT22;42045;52.986;6.014;2022-09-09T06:36:12;14.30;99.90
56162;DHT22;42045;52.986;6.014;2022-09-09T06:38:38;14.40;99.90
56162;DHT22;42045;52.986;6.014;2022-09-09T06:41:04;14.50;99.90
56162;DHT22;42045;52.986;6.014;2022-09-09T06:43:32;14.50;99.90
56162;DHT22;42045;52.986;6.014;2022-09-09T06:45:59;14.50;99.90
56162;DHT22;42045;52.986;6.014;2022-09-09T06:48:27;14.50;99.90
56162;DHT22;42045;52.986;6.014;2022-09-09T06:53:40;14.80;99.90
56162;DHT22;42045;52.986;6.014;2022-09-09T06:58:39;15.10;99.90
56162;DHT22;42045;52.986;6.014;2022-09-09T07:01:09;15.20;99.90
56162;DHT22;42045;52.986;6.014;2022-09-09T07:03:35;15.30;99.90
56162;DHT22;42045;52.986;6.014;2022-09-09T07:06:01;15.20;99.90
56162;DHT22;42045;52.986;6.014;2022-09-09T07:08:28;15.30;99.90
56162;DHT22;42045;52.986;6.014;2022-09-09T07:10:54;15.50;99.90
56162;DHT22;42045;52.986;6.014;2022-09-09T07:13:28;15.60;99.90
56162;DHT22;42045;52.986;6.014;2022-09-09T07:15:54;15.70;99.90
56162;DHT22;42045;52.986;6.014;2022-09-09T07:18:20;15.90;99.90
56162;DHT22;42045;52.986;6.014;2022-09-09T07:20:53;15.90;99.90
56162;DHT22;42045;52.986;6.014;2022-09-09T07:23:23;16.00;99.90
56162;DHT22;42045;52.986;6.014;2022-09-09T07:25:50;16.10;99.90
56162;DHT22;42045;52.986;6.014;2022-09-09T07:28:19;16.20;99.90
56162;DHT22;42045;52.986;6.014;2022-09-09T07:30:56;16.50;99.90
56162;DHT22;42045;52.986;6.014;2022-09-09T07:33:24;16.80;99.90
56162;DHT22;42045;52.986;6.014;2022-09-09T07:35:50;17.00;99.90
56162;DHT22;42045;52.986;6.014;2022-09-09T07:38:17;17.20;99.90
56162;DHT22;42045;52.986;6.014;2022-09-09T07:40:43;17.40;99.90
56162;DHT22;42045;52.986;6.014;2022-09-09T07:43:09;17.60;99.90
56162;DHT22;42045;52.986;6.014;2022-09-09T07:45:35;17.60;99.90
56162;DHT22;42045;52.986;6.014;2022-09-09T07:48:02;17.80;99.90
56162;DHT22;42045;52.986;6.014;2022-09-09T07:50:28;18.00;99.90
56162;DHT22;42045;52.986;6.014;2022-09-09T07:52:54;18.20;99.90
56162;DHT22;42045;52.986;6.014;2022-09-09T07:55:21;18.40;99.90
56162;DHT22;42045;52.986;6.014;2022-09-09T07:57:52;18.60;99.90
56162;DHT22;42045;52.986;6.014;2022-09-09T08:00:19;18.60;99.90
56162;DHT22;42045;52.986;6.014;2022-09-09T08:02:48;19.00;99.90
56162;DHT22;42045;52.986;6.014;2022-09-09T08:05:14;19.00;99.90
56162;DHT22;42045;52.986;6.014;2022-09-09T08:07:43;19.10;99.90
56162;DHT22;42045;52.986;6.014;2022-09-09T08:10:10;19.20;99.90
56162;DHT22;42045;52.986;6.014;2022-09-09T08:12:36;19.30;99.90
56162;DHT22;42045;52.986;6.014;2022-09-09T08:15:02;19.20;99.90
56162;DHT22;42045;52.986;6.014;2022-09-09T08:17:28;19.10;99.90
56162;DHT22;42045;52.986;6.014;2022-09-09T08:19:54;19.00;99.90
56162;DHT22;42045;52.986;6.014;2022-09-09T08:22:20;19.00;99.90
56162;DHT22;42045;52.986;6.014;2022-09-09T08:24:47;19.00;99.90
56162;DHT22;42045;52.986;6.014;2022-09-09T08:27:14;18.90;99.90
56162;DHT22;42045;52.986;6.014;2022-09-09T08:29:40;18.90;99.90
56162;DHT22;42045;52.986;6.014;2022-09-09T08:32:06;18.70;99.90
56162;DHT22;42045;52.986;6.014;2022-09-09T08:34:32;18.90;99.90
56162;DHT22;42045;52.986;6.014;2022-09-09T08:36:58;19.00;99.90
56162;DHT22;42045;52.986;6.014;2022-09-09T08:39:23;19.10;99.90
56162;DHT22;42045;52.986;6.014;2022-09-09T08:50:19;18.90;99.90
56162;DHT22;42045;52.986;6.014;2022-09-09T08:55:51;19.30;99.90
56162;DHT22;42045;52.986;6.014;2022-09-09T08:58:25;19.30;99.90
56162;DHT22;42045;52.986;6.014;2022-09-09T09:11:55;18.40;99.90
56162;DHT22;42045;52.986;6.014;2022-09-09T09:14:29;18.60;99.90
56162;DHT22;42045;52.986;6.014;2022-09-09T09:17:04;18.60;99.90
56162;DHT22;42045;52.986;6.014;2022-09-09T09:19:35;18.70;99.90
56162;DHT22;42045;52.986;6.014;2022-09-09T09:22:21;18.70;99.90
56162;DHT22;42045;52.986;6.014;2022-09-09T09:24:52;18.50;99.90
56162;DHT22;42045;52.986;6.014;2022-09-09T09:27:35;18.50;99.90
56162;DHT22;42045;52.986;6.014;2022-09-09T09:32:50;18.40;99.90
56162;DHT22;42045;52.986;6.014;2022-09-09T09:35:17;18.40;99.90
56162;DHT22;42045;52.986;6.014;2022-09-09T09:37:43;18.50;99.90
56162;DHT22;42045;52.986;6.014;2022-09-09T09:40:15;18.60;99.90
56162;DHT22;42045;52.986;6.014;2022-09-09T09:42:56;18.60;99.90
56162;DHT22;42045;52.986;6.014;2022-09-09T09:45:32;18.80;99.90
56162;DHT22;42045;52.986;6.014;2022-09-09T09:48:08;18.90;99.90
56162;DHT22;42045;52.986;6.014;2022-09-09T09:50:34;19.00;99.90
56162;DHT22;42045;52.986;6.014;2022-09-09T09:53:03;19.00;99.90
56162;DHT22;42045;52.986;6.014;2022-09-09T09:55:34;19.00;99.90
56162;DHT22;42045;52.986;6.014;2022-09-09T09:58:06;18.90;99.90
56162;DHT22;42045;52.986;6.014;2022-09-09T10:00:48;18.80;99.90
56162;DHT22;42045;52.986;6.014;2022-09-09T10:03:50;18.70;99.90
56162;DHT22;42045;52.986;6.014;2022-09-09T10:06:16;18.60;99.90
56162;DHT22;42045;52.986;6.014;2022-09-09T10:08:45;18.50;99.90
56162;DHT22;42045;52.986;6.014;2022-09-09T10:16:41;18.80;99.90
56162;DHT22;42045;52.986;6.014;2022-09-09T10:19:33;19.30;99.90
56162;DHT22;42045;52.986;6.014;2022-09-09T10:33:22;18.90;99.90
56162;DHT22;42045;52.986;6.014;2022-09-09T10:36:12;18.70;99.90
56162;DHT22;42045;52.986;6.014;2022-09-09T10:38:54;18.90;99.90
56162;DHT22;42045;52.986;6.014;2022-09-09T10:41:47;18.90;99.90
56162;DHT22;42045;52.986;6.014;2022-09-09T10:47:21;18.90;99.90
56162;DHT22;42045;52.986;6.014;2022-09-09T10:52:58;19.00;99.90
56162;DHT22;42045;52.986;6.014;2022-09-09T10:55:41;19.10;99.90
56162;DHT22;42045;52.986;6.014;2022-09-09T10:58:14;19.20;99.90
56162;DHT22;42045;52.986;6.014;2022-09-09T11:00:49;19.30;99.90
56162;DHT22;42045;52.986;6.014;2022-09-09T11:03:22;19.30;99.90
56162;DHT22;42045;52.986;6.014;2022-09-09T11:05:55;19.40;99.90
56162;DHT22;42045;52.986;6.014;2022-09-09T11:08:23;19.20;99.90
56162;DHT22;42045;52.986;6.014;2022-09-09T11:11:12;19.10;99.90
56162;DHT22;42045;52.986;6.014;2022-09-09T11:19:03;19.20;99.90
56162;DHT22;42045;52.986;6.014;2022-09-09T11:21:34;19.00;99.90
56162;DHT22;42045;52.986;6.014;2022-09-09T11:27:08;18.70;99.90
56162;DHT22;42045;52.986;6.014;2022-09-09T11:32:55;18.60;99.90
56162;DHT22;42045;52.986;6.014;2022-09-09T11:38:26;18.90;99.90
56162;DHT22;42045;52.986;6.014;2022-09-09T11:41:04;19.20;99.90
56162;DHT22;42045;52.986;6.014;2022-09-09T11:43:44;19.40;99.90
56162;DHT22;42045;52.986;6.014;2022-09-09T11:46:12;19.50;99.90
56162;DHT22;42045;52.986;6.014;2022-09-09T11:48:44;19.70;99.90
56162;DHT22;42045;52.986;6.014;2022-09-09T11:53:53;19.90;99.90
56162;DHT22;42045;52.986;6.014;2022-09-09T11:56:29;19.80;99.90
56162;DHT22;42045;52.986;6.014;2022-09-09T12:01:44;19.80;99.90
56162;DHT22;42045;52.986;6.014;2022-09-09T12:06:46;20.20;99.90
56162;DHT22;42045;52.986;6.014;2022-09-09T12:09:30;20.30;99.90
56162;DHT22;42045;52.986;6.014;2022-09-09T12:17:52;19.80;99.90
56162;DHT22;42045;52.986;6.014;2022-09-09T12:29:08;19.50;99.90
56162;DHT22;42045;52.986;6.014;2022-09-09T12:37:02;19.60;99.90
56162;DHT22;42045;52.986;6.014;2022-09-09T12:39:39;19.60;99.90
56162;DHT22;42045;52.986;6.014;2022-09-09T12:42:24;19.60;99.90
56162;DHT22;42045;52.986;6.014;2022-09-09T12:47:22;19.50;99.90
56162;DHT22;42045;52.986;6.014;2022-09-09T12:49:50;19.00;99.90
56162;DHT22;42045;52.986;6.014;2022-09-09T12:52:22;18.90;99.90
56162;DHT22;42045;52.986;6.014;2022-09-09T12:54:49;18.90;99.90
56162;DHT22;42045;52.986;6.014;2022-09-09T12:57:17;19.10;99.90
56162;DHT22;42045;52.986;6.014;2022-09-09T12:59:44;19.40;99.90
56162;DHT22;42045;52.986;6.014;2022-09-09T13:02:26;19.70;99.90
56162;DHT22;42045;52.986;6.014;2022-09-09T13:04:53;19.90;99.90
56162;DHT22;42045;52.986;6.014;2022-09-09T13:07:25;19.90;99.90
56162;DHT22;42045;52.986;6.014;2022-09-09T13:09:51;20.00;99.90
56162;DHT22;42045;52.986;6.014;2022-09-09T13:12:22;19.90;99.90
56162;DHT22;42045;52.986;6.014;2022-09-09T13:14:50;19.70;99.90
56162;DHT22;42045;52.986;6.014;2022-09-09T13:17:25;19.50;99.90
56162;DHT22;42045;52.986;6.014;2022-09-09T13:19:53;19.30;99.90
56162;DHT22;42045;52.986;6.014;2022-09-09T13:22:39;19.10;99.90
56162;DHT22;42045;52.986;6.014;2022-09-09T13:27:40;19.40;99.90
56162;DHT22;42045;52.986;6.014;2022-09-09T13:30:31;19.60;99.90
56162;DHT22;42045;52.986;6.014;2022-09-09T13:35:56;20.00;99.90
56162;DHT22;42045;52.986;6.014;2022-09-09T13:38:23;19.80;99.90
56162;DHT22;42045;52.986;6.014;2022-09-09T13:40:59;19.60;99.90
56162;DHT22;42045;52.986;6.014;2022-09-09T13:43:29;19.40;99.90
56162;DHT22;42045;52.986;6.014;2022-09-09T13:45:57;19.50;99.90
56162;DHT22;42045;52.986;6.014;2022-09-09T13:48:25;19.60;99.90
56162;DHT22;42045;52.986;6.014;2022-09-09T13:50:59;19.50;99.90
56162;DHT22;42045;52.986;6.014;2022-09-09T13:53:26;19.60;99.90
56162;DHT22;42045;52.986;6.014;2022-09-09T13:55:53;19.50;99.90
56162;DHT22;42045;52.986;6.014;2022-09-09T13:58:19;19.50;99.90
56162;DHT22;42045;52.986;6.014;2022-09-09T14:00:52;19.40;99.90
56162;DHT22;42045;52.986;6.014;2022-09-09T14:03:18;19.30;99.90
56162;DHT22;42045;52.986;6.014;2022-09-09T14:05:45;19.40;99.90
56162;DHT22;42045;52.986;6.014;2022-09-09T14:08:16;19.60;99.90
56162;DHT22;42045;52.986;6.014;2022-09-09T14:10:47;19.70;99.90
56162;DHT22;42045;52.986;6.014;2022-09-09T14:13:13;19.80;99.90
56162;DHT22;42045;52.986;6.014;2022-09-09T14:15:38;19.80;99.90
56162;DHT22;42045;52.986;6.014;2022-09-09T14:18:04;19.70;99.90
56162;DHT22;42045;52.986;6.014;2022-09-09T14:20:30;19.40;99.90
56162;DHT22;42045;52.986;6.014;2022-09-09T14:22:56;19.30;99.90
56162;DHT22;42045;52.986;6.014;2022-09-09T14:25:24;19.10;99.90
56162;DHT22;42045;52.986;6.014;2022-09-09T14:27:50;19.20;99.90
56162;DHT22;42045;52.986;6.014;2022-09-09T14:30:17;19.20;99.90
56162;DHT22;42045;52.986;6.014;2022-09-09T14:32:42;19.20;99.90
56162;DHT22;42045;52.986;6.014;2022-09-09T14:35:08;19.10;99.90
56162;DHT22;42045;52.986;6.014;2022-09-09T14:37:34;19.00;99.90
56162;DHT22;42045;52.986;6.014;2022-09-09T14:40:03;18.90;99.90
56162;DHT22;42045;52.986;6.014;2022-09-09T14:42:35;18.80;99.90
56162;DHT22;42045;52.986;6.014;2022-09-09T14:45:01;18.70;99.90
56162;DHT22;42045;52.986;6.014;2022-09-09T14:47:30;18.50;99.90
56162;DHT22;42045;52.986;6.014;2022-09-09T14:49:55;18.30;99.90
56162;DHT22;42045;52.986;6.014;2022-09-09T14:52:21;18.10;99.90
56162;DHT22;42045;52.986;6.014;2022-09-09T14:54:50;17.80;99.90
56162;DHT22;42045;52.986;6.014;2022-09-09T14:57:16;17.70;99.90
56162;DHT22;42045;52.986;6.014;2022-09-09T14:59:42;17.50;99.90
56162;DHT22;42045;52.986;6.014;2022-09-09T15:02:09;17.40;99.90
56162;DHT22;42045;52.986;6.014;2022-09-09T15:04:35;17.40;99.90
56162;DHT22;42045;52.986;6.014;2022-09-09T15:07:01;17.40;99.90
56162;DHT22;42045;52.986;6.014;2022-09-09T15:09:27;17.30;99.90
56162;DHT22;42045;52.986;6.014;2022-09-09T15:11:53;17.30;99.90
56162;DHT22;42045;52.986;6.014;2022-09-09T15:14:19;17.30;99.90
56162;DHT22;42045;52.986;6.014;2022-09-09T15:16:45;17.20;99.90
56162;DHT22;42045;52.986;6.014;2022-09-09T15:19:11;17.30;99.90
56162;DHT22;42045;52.986;6.014;2022-09-09T15:21:37;17.40;99.90
56162;DHT22;42045;52.986;6.014;2022-09-09T15:24:05;17.40;99.90
56162;DHT22;42045;52.986;6.014;2022-09-09T15:26:32;17.60;99.90
56162;DHT22;42045;52.986;6.014;2022-09-09T15:28:58;17.60;99.90
56162;DHT22;42045;52.986;6.014;2022-09-09T15:31:30;17.60;99.90
56162;DHT22;42045;52.986;6.014;2022-09-09T15:33:57;17.70;99.90
56162;DHT22;42045;52.986;6.014;2022-09-09T15:38:54;17.90;99.90
56162;DHT22;42045;52.986;6.014;2022-09-09T15:41:21;17.90;99.90
56162;DHT22;42045;52.986;6.014;2022-09-09T15:43:53;18.00;99.90
56162;DHT22;42045;52.986;6.014;2022-09-09T15:49:16;18.10;99.90
56162;DHT22;42045;52.986;6.014;2022-09-09T15:51:51;18.20;99.90
56162;DHT22;42045;52.986;6.014;2022-09-09T15:54:19;18.30;99.90
56162;DHT22;42045;52.986;6.014;2022-09-09T15:56:47;18.30;99.90
56162;DHT22;42045;52.986;6.014;2022-09-09T15:59:15;18.30;99.90
56162;DHT22;42045;52.986;6.014;2022-09-09T16:01:42;18.30;99.90
56162;DHT22;42045;52.986;6.014;2022-09-09T16:04:09;18.20;99.90
56162;DHT22;42045;52.986;6.014;2022-09-09T16:06:36;18.20;99.90
56162;DHT22;42045;52.986;6.014;2022-09-09T16:09:04;18.10;99.90
56162;DHT22;42045;52.986;6.014;2022-09-09T16:11:34;18.10;99.90
56162;DHT22;42045;52.986;6.014;2022-09-09T16:14:00;18.10;99.90
56162;DHT22;42045;52.986;6.014;2022-09-09T16:16:28;18.20;99.90
56162;DHT22;42045;52.986;6.014;2022-09-09T16:18:57;18.30;99.90
56162;DHT22;42045;52.986;6.014;2022-09-09T16:21:28;18.30;99.90
56162;DHT22;42045;52.986;6.014;2022-09-09T16:23:55;18.40;99.90
56162;DHT22;42045;52.986;6.014;2022-09-09T16:26:22;18.40;99.90
56162;DHT22;42045;52.986;6.014;2022-09-09T16:28:49;18.50;99.90
56162;DHT22;42045;52.986;6.014;2022-09-09T16:31:23;18.60;99.90
56162;DHT22;42045;52.986;6.014;2022-09-09T16:33:49;18.50;99.90
56162;DHT22;42045;52.986;6.014;2022-09-09T16:36:24;18.40;99.90
56162;DHT22;42045;52.986;6.014;2022-09-09T16:38:57;18.30;99.90
56162;DHT22;42045;52.986;6.014;2022-09-09T16:41:24;18.20;99.90
56162;DHT22;42045;52.986;6.014;2022-09-09T16:43:55;18.10;99.90
56162;DHT22;42045;52.986;6.014;2022-09-09T16:46:22;18.00;99.90
56162;DHT22;42045;52.986;6.014;2022-09-09T16:48:50;17.90;99.90
56162;DHT22;42045;52.986;6.014;2022-09-09T16:51:22;17.80;99.90
56162;DHT22;42045;52.986;6.014;2022-09-09T16:53:51;17.80;99.90
56162;DHT22;42045;52.986;6.014;2022-09-09T16:56:23;17.80;99.90
56162;DHT22;42045;52.986;6.014;2022-09-09T16:59:15;17.70;99.90
56162;DHT22;42045;52.986;6.014;2022-09-09T17:01:42;17.70;99.90
56162;DHT22;42045;52.986;6.014;2022-09-09T17:04:10;17.70;99.90
56162;DHT22;42045;52.986;6.014;2022-09-09T17:06:37;17.60;99.90
56162;DHT22;42045;52.986;6.014;2022-09-09T17:09:07;17.60;99.90
56162;DHT22;42045;52.986;6.014;2022-09-09T17:11:34;17.60;99.90
56162;DHT22;42045;52.986;6.014;2022-09-09T17:14:00;17.50;99.90
56162;DHT22;42045;52.986;6.014;2022-09-09T17:16:28;17.50;99.90
56162;DHT22;42045;52.986;6.014;2022-09-09T17:18:55;17.50;99.90
56162;DHT22;42045;52.986;6.014;2022-09-09T17:21:23;17.50;99.90
56162;DHT22;42045;52.986;6.014;2022-09-09T17:23:53;17.40;99.90
56162;DHT22;42045;52.986;6.014;2022-09-09T17:26:22;17.40;99.90
56162;DHT22;42045;52.986;6.014;2022-09-09T17:28:48;17.40;99.90
56162;DHT22;42045;52.986;6.014;2022-09-09T17:31:16;17.40;99.90
56162;DHT22;42045;52.986;6.014;2022-09-09T17:33:45;17.40;99.90
56162;DHT22;42045;52.986;6.014;2022-09-09T17:36:15;17.40;99.90
56162;DHT22;42045;52.986;6.014;2022-09-09T17:38:41;17.40;99.90
56162;DHT22;42045;52.986;6.014;2022-09-09T17:41:13;17.40;99.90
56162;DHT22;42045;52.986;6.014;2022-09-09T17:43:40;17.40;99.90
56162;DHT22;42045;52.986;6.014;2022-09-09T17:46:13;17.30;99.90
56162;DHT22;42045;52.986;6.014;2022-09-09T17:48:41;17.30;99.90
56162;DHT22;42045;52.986;6.014;2022-09-09T17:51:09;17.30;99.90
56162;DHT22;42045;52.986;6.014;2022-09-09T17:53:40;17.20;99.90
56162;DHT22;42045;52.986;6.014;2022-09-09T17:56:09;17.20;99.90
56162;DHT22;42045;52.986;6.014;2022-09-09T17:58:39;17.10;99.90
56162;DHT22;42045;52.986;6.014;2022-09-09T18:01:07;17.10;99.90
56162;DHT22;42045;52.986;6.014;2022-09-09T18:03:37;17.10;99.90
56162;DHT22;42045;52.986;6.014;2022-09-09T18:06:07;17.10;99.90
56162;DHT22;42045;52.986;6.014;2022-09-09T18:08:35;17.00;99.90
56162;DHT22;42045;52.986;6.014;2022-09-09T18:11:04;17.00;99.90
56162;DHT22;42045;52.986;6.014;2022-09-09T18:13:31;17.00;99.90
56162;DHT22;42045;52.986;6.014;2022-09-09T18:15:58;17.10;99.90
56162;DHT22;42045;52.986;6.014;2022-09-09T18:18:24;17.10;99.90
56162;DHT22;42045;52.986;6.014;2022-09-09T18:21:01;17.10;99.90
56162;DHT22;42045;52.986;6.014;2022-09-09T18:23:28;17.10;99.90
56162;DHT22;42045;52.986;6.014;2022-09-09T18:25:54;17.00;99.90